sensor_id;sensor_type;location;lat;lon;timestamp;P1;durP1;ratioP1;P2;durP2;ratioP2
58137;SDS011;43955;47.362;18.930;2022-12-29T00:00:09;35.55;;;15.10;;
58137;SDS011;43955;47.362;18.930;2022-12-29T00:02:38;66.57;;;25.30;;
58137;SDS011;43955;47.362;18.930;2022-12-29T00:05:05;40.38;;;18.25;;
58137;SDS011;43955;47.362;18.930;2022-12-29T00:07:33;49.05;;;21.85;;
58137;SDS011;43955;47.362;18.930;2022-12-29T00:10:00;50.00;;;21.00;;
58137;SDS011;43955;47.362;18.930;2022-12-29T00:12:28;54.83;;;20.85;;
58137;SDS011;43955;47.362;18.930;2022-12-29T00:15:15;53.00;;;21.92;;
58137;SDS011;43955;47.362;18.930;2022-12-29T00:18:02;87.20;;;31.85;;
58137;SDS011;43955;47.362;18.930;2022-12-29T00:20:29;111.70;;;35.25;;
58137;SDS011;43955;47.362;18.930;2022-12-29T00:23:15;86.35;;;27.98;;
58137;SDS011;43955;47.362;18.930;2022-12-29T00:26:02;68.95;;;26.67;;
58137;SDS011;43955;47.362;18.930;2022-12-29T00:28:50;52.92;;;21.25;;
58137;SDS011;43955;47.362;18.930;2022-12-29T00:31:35;66.82;;;26.62;;
58137;SDS011;43955;47.362;18.930;2022-12-29T00:34:21;46.15;;;20.62;;
58137;SDS011;43955;47.362;18.930;2022-12-29T00:37:07;42.95;;;18.00;;
58137;SDS011;43955;47.362;18.930;2022-12-29T00:39:34;39.15;;;16.98;;
58137;SDS011;43955;47.362;18.930;2022-12-29T00:42:20;41.20;;;18.65;;
58137;SDS011;43955;47.362;18.930;2022-12-29T00:45:06;68.68;;;27.70;;
58137;SDS011;43955;47.362;18.930;2022-12-29T00:47:34;70.53;;;27.62;;
58137;SDS011;43955;47.362;18.930;2022-12-29T00:50:01;40.28;;;18.52;;
58137;SDS011;43955;47.362;18.930;2022-12-29T00:52:29;33.40;;;15.38;;
58137;SDS011;43955;47.362;18.930;2022-12-29T00:54:56;33.20;;;15.93;;
58137;SDS011;43955;47.362;18.930;2022-12-29T00:57:23;31.08;;;15.52;;
58137;SDS011;43955;47.362;18.930;2022-12-29T00:59:51;35.10;;;16.42;;
58137;SDS011;43955;47.362;18.930;2022-12-29T01:02:18;31.45;;;16.73;;
58137;SDS011;43955;47.362;18.930;2022-12-29T01:04:46;28.83;;;14.45;;
58137;SDS011;43955;47.362;18.930;2022-12-29T01:07:13;37.38;;;17.42;;
58137;SDS011;43955;47.362;18.930;2022-12-29T01:09:40;27.85;;;14.87;;
58137;SDS011;43955;47.362;18.930;2022-12-29T01:12:26;29.87;;;14.35;;
58137;SDS011;43955;47.362;18.930;2022-12-29T01:15:14;27.98;;;12.27;;
58137;SDS011;43955;47.362;18.930;2022-12-29T01:17:41;40.90;;;17.83;;
58137;SDS011;43955;47.362;18.930;2022-12-29T01:20:09;50.97;;;23.67;;
58137;SDS011;43955;47.362;18.930;2022-12-29T01:22:37;71.85;;;30.02;;
58137;SDS011;43955;47.362;18.930;2022-12-29T01:25:05;59.15;;;28.33;;
58137;SDS011;43955;47.362;18.930;2022-12-29T01:27:33;77.68;;;32.97;;
58137;SDS011;43955;47.362;18.930;2022-12-29T01:30:01;39.08;;;19.17;;
58137;SDS011;43955;47.362;18.930;2022-12-29T01:32:28;40.97;;;22.15;;
58137;SDS011;43955;47.362;18.930;2022-12-29T01:34:55;73.97;;;35.50;;
58137;SDS011;43955;47.362;18.930;2022-12-29T01:37:22;150.48;;;61.25;;
58137;SDS011;43955;47.362;18.930;2022-12-29T01:39:50;45.05;;;20.45;;
58137;SDS011;43955;47.362;18.930;2022-12-29T01:42:18;39.55;;;22.23;;
58137;SDS011;43955;47.362;18.930;2022-12-29T01:44:51;31.52;;;14.32;;
58137;SDS011;43955;47.362;18.930;2022-12-29T01:47:22;40.80;;;14.82;;
58137;SDS011;43955;47.362;18.930;2022-12-29T01:49:55;32.88;;;14.80;;
58137;SDS011;43955;47.362;18.930;2022-12-29T01:52:24;35.38;;;17.92;;
58137;SDS011;43955;47.362;18.930;2022-12-29T01:54:53;40.70;;;17.05;;
58137;SDS011;43955;47.362;18.930;2022-12-29T01:57:26;33.85;;;15.43;;
58137;SDS011;43955;47.362;18.930;2022-12-29T01:59:58;38.15;;;18.70;;
58137;SDS011;43955;47.362;18.930;2022-12-29T02:02:38;89.13;;;36.55;;
58137;SDS011;43955;47.362;18.930;2022-12-29T02:05:13;40.95;;;18.52;;
58137;SDS011;43955;47.362;18.930;2022-12-29T02:07:44;33.03;;;16.58;;
58137;SDS011;43955;47.362;18.930;2022-12-29T02:10:12;38.60;;;15.82;;
58137;SDS011;43955;47.362;18.930;2022-12-29T02:12:40;31.45;;;14.07;;
58137;SDS011;43955;47.362;18.930;2022-12-29T02:15:08;37.83;;;16.10;;
58137;SDS011;43955;47.362;18.930;2022-12-29T02:20:56;37.65;;;16.35;;
58137;SDS011;43955;47.362;18.930;2022-12-29T02:34:26;31.17;;;14.45;;
58137;SDS011;43955;47.362;18.930;2022-12-29T02:42:51;33.97;;;15.75;;
58137;SDS011;43955;47.362;18.930;2022-12-29T02:51:02;41.75;;;20.42;;
58137;SDS011;43955;47.362;18.930;2022-12-29T02:53:32;42.15;;;21.77;;
58137;SDS011;43955;47.362;18.930;2022-12-29T02:56:19;35.10;;;16.12;;
58137;SDS011;43955;47.362;18.930;2022-12-29T02:58:46;35.33;;;15.93;;
58137;SDS011;43955;47.362;18.930;2022-12-29T03:01:24;27.10;;;13.45;;
58137;SDS011;43955;47.362;18.930;2022-12-29T03:12:45;30.25;;;15.27;;
58137;SDS011;43955;47.362;18.930;2022-12-29T03:15:46;35.22;;;16.67;;
58137;SDS011;43955;47.362;18.930;2022-12-29T03:18:37;35.10;;;16.15;;
58137;SDS011;43955;47.362;18.930;2022-12-29T03:21:11;36.03;;;17.90;;
58137;SDS011;43955;47.362;18.930;2022-12-29T03:23:41;31.77;;;16.95;;
58137;SDS011;43955;47.362;18.930;2022-12-29T03:26:11;29.20;;;14.80;;
58137;SDS011;43955;47.362;18.930;2022-12-29T03:28:44;30.70;;;16.30;;
58137;SDS011;43955;47.362;18.930;2022-12-29T03:31:15;24.73;;;13.65;;
58137;SDS011;43955;47.362;18.930;2022-12-29T03:33:43;28.58;;;13.70;;
58137;SDS011;43955;47.362;18.930;2022-12-29T03:36:13;35.75;;;20.67;;
58137;SDS011;43955;47.362;18.930;2022-12-29T03:38:46;34.95;;;18.73;;
58137;SDS011;43955;47.362;18.930;2022-12-29T03:41:20;28.38;;;15.75;;
58137;SDS011;43955;47.362;18.930;2022-12-29T03:43:50;35.92;;;19.17;;
58137;SDS011;43955;47.362;18.930;2022-12-29T03:46:17;37.80;;;17.50;;
58137;SDS011;43955;47.362;18.930;2022-12-29T03:48:45;31.33;;;15.43;;
58137;SDS011;43955;47.362;18.930;2022-12-29T03:51:13;38.00;;;18.37;;
58137;SDS011;43955;47.362;18.930;2022-12-29T03:53:40;35.15;;;15.85;;
58137;SDS011;43955;47.362;18.930;2022-12-29T03:56:08;34.03;;;17.08;;
58137;SDS011;43955;47.362;18.930;2022-12-29T03:58:36;33.42;;;15.38;;
58137;SDS011;43955;47.362;18.930;2022-12-29T04:01:04;28.25;;;13.57;;
58137;SDS011;43955;47.362;18.930;2022-12-29T04:03:31;30.50;;;15.02;;
58137;SDS011;43955;47.362;18.930;2022-12-29T04:05:59;25.88;;;12.75;;
58137;SDS011;43955;47.362;18.930;2022-12-29T04:08:26;28.25;;;13.50;;
58137;SDS011;43955;47.362;18.930;2022-12-29T04:10:53;30.05;;;14.93;;
58137;SDS011;43955;47.362;18.930;2022-12-29T04:13:21;31.02;;;14.18;;
58137;SDS011;43955;47.362;18.930;2022-12-29T04:15:51;37.38;;;17.50;;
58137;SDS011;43955;47.362;18.930;2022-12-29T04:18:19;31.27;;;17.42;;
58137;SDS011;43955;47.362;18.930;2022-12-29T04:20:46;32.45;;;16.98;;
58137;SDS011;43955;47.362;18.930;2022-12-29T04:23:30;58.38;;;24.85;;
58137;SDS011;43955;47.362;18.930;2022-12-29T04:25:59;31.50;;;15.88;;
58137;SDS011;43955;47.362;18.930;2022-12-29T04:28:26;31.77;;;15.57;;
58137;SDS011;43955;47.362;18.930;2022-12-29T04:30:55;29.87;;;14.52;;
58137;SDS011;43955;47.362;18.930;2022-12-29T04:33:22;26.37;;;12.70;;
58137;SDS011;43955;47.362;18.930;2022-12-29T04:35:52;30.42;;;12.35;;
58137;SDS011;43955;47.362;18.930;2022-12-29T04:38:23;28.48;;;14.65;;
58137;SDS011;43955;47.362;18.930;2022-12-29T04:40:51;50.25;;;22.60;;
58137;SDS011;43955;47.362;18.930;2022-12-29T04:43:19;49.22;;;22.23;;
58137;SDS011;43955;47.362;18.930;2022-12-29T04:45:50;97.72;;;33.83;;
58137;SDS011;43955;47.362;18.930;2022-12-29T04:48:18;49.83;;;23.80;;
58137;SDS011;43955;47.362;18.930;2022-12-29T04:50:47;60.53;;;27.70;;
58137;SDS011;43955;47.362;18.930;2022-12-29T04:53:16;60.72;;;26.70;;
58137;SDS011;43955;47.362;18.930;2022-12-29T04:55:47;52.13;;;22.02;;
58137;SDS011;43955;47.362;18.930;2022-12-29T04:58:16;53.65;;;22.42;;
58137;SDS011;43955;47.362;18.930;2022-12-29T05:00:49;57.42;;;25.73;;
58137;SDS011;43955;47.362;18.930;2022-12-29T05:03:20;55.58;;;24.98;;
58137;SDS011;43955;47.362;18.930;2022-12-29T05:05:48;54.17;;;23.73;;
58137;SDS011;43955;47.362;18.930;2022-12-29T05:08:15;36.40;;;17.92;;
58137;SDS011;43955;47.362;18.930;2022-12-29T05:10:44;36.05;;;19.80;;
58137;SDS011;43955;47.362;18.930;2022-12-29T05:13:12;54.65;;;24.52;;
58137;SDS011;43955;47.362;18.930;2022-12-29T05:15:45;61.10;;;26.60;;
58137;SDS011;43955;47.362;18.930;2022-12-29T05:18:15;45.22;;;24.23;;
58137;SDS011;43955;47.362;18.930;2022-12-29T05:20:44;58.15;;;25.80;;
58137;SDS011;43955;47.362;18.930;2022-12-29T05:23:12;53.55;;;23.75;;
58137;SDS011;43955;47.362;18.930;2022-12-29T05:25:40;48.85;;;20.27;;
58137;SDS011;43955;47.362;18.930;2022-12-29T05:28:07;37.17;;;16.60;;
58137;SDS011;43955;47.362;18.930;2022-12-29T05:30:36;33.65;;;15.00;;
58137;SDS011;43955;47.362;18.930;2022-12-29T05:33:03;34.50;;;16.58;;
58137;SDS011;43955;47.362;18.930;2022-12-29T05:35:33;32.92;;;16.37;;
58137;SDS011;43955;47.362;18.930;2022-12-29T05:38:00;28.45;;;14.02;;
58137;SDS011;43955;47.362;18.930;2022-12-29T05:40:28;24.95;;;13.20;;
58137;SDS011;43955;47.362;18.930;2022-12-29T05:42:56;28.90;;;12.05;;
58137;SDS011;43955;47.362;18.930;2022-12-29T05:45:23;23.50;;;11.70;;
58137;SDS011;43955;47.362;18.930;2022-12-29T05:47:51;38.47;;;14.27;;
58137;SDS011;43955;47.362;18.930;2022-12-29T05:50:19;30.48;;;13.00;;
58137;SDS011;43955;47.362;18.930;2022-12-29T05:52:55;28.92;;;13.45;;
58137;SDS011;43955;47.362;18.930;2022-12-29T05:55:22;25.48;;;12.48;;
58137;SDS011;43955;47.362;18.930;2022-12-29T05:57:50;23.60;;;11.63;;
58137;SDS011;43955;47.362;18.930;2022-12-29T06:00:17;27.13;;;11.57;;
58137;SDS011;43955;47.362;18.930;2022-12-29T06:02:45;35.53;;;13.70;;
58137;SDS011;43955;47.362;18.930;2022-12-29T06:05:14;28.12;;;12.82;;
58137;SDS011;43955;47.362;18.930;2022-12-29T06:07:41;33.95;;;14.65;;
58137;SDS011;43955;47.362;18.930;2022-12-29T06:10:09;27.05;;;13.40;;
58137;SDS011;43955;47.362;18.930;2022-12-29T06:12:38;27.08;;;11.48;;
58137;SDS011;43955;47.362;18.930;2022-12-29T06:15:05;22.13;;;11.68;;
58137;SDS011;43955;47.362;18.930;2022-12-29T06:17:34;29.12;;;11.57;;
58137;SDS011;43955;47.362;18.930;2022-12-29T06:20:01;22.08;;;11.52;;
58137;SDS011;43955;47.362;18.930;2022-12-29T06:22:29;25.35;;;11.90;;
58137;SDS011;43955;47.362;18.930;2022-12-29T06:24:58;24.55;;;11.80;;
58137;SDS011;43955;47.362;18.930;2022-12-29T06:27:31;23.70;;;11.65;;
58137;SDS011;43955;47.362;18.930;2022-12-29T06:30:00;31.42;;;12.00;;
58137;SDS011;43955;47.362;18.930;2022-12-29T06:32:27;26.17;;;12.63;;
58137;SDS011;43955;47.362;18.930;2022-12-29T06:34:55;27.85;;;12.05;;
58137;SDS011;43955;47.362;18.930;2022-12-29T06:37:23;50.12;;;12.75;;
58137;SDS011;43955;47.362;18.930;2022-12-29T06:39:50;25.92;;;12.05;;
58137;SDS011;43955;47.362;18.930;2022-12-29T06:42:17;21.70;;;11.43;;
58137;SDS011;43955;47.362;18.930;2022-12-29T06:44:45;28.85;;;18.70;;
58137;SDS011;43955;47.362;18.930;2022-12-29T06:47:12;26.73;;;12.93;;
58137;SDS011;43955;47.362;18.930;2022-12-29T06:49:40;27.10;;;13.20;;
58137;SDS011;43955;47.362;18.930;2022-12-29T06:52:07;25.40;;;12.07;;
58137;SDS011;43955;47.362;18.930;2022-12-29T06:54:39;25.33;;;12.40;;
58137;SDS011;43955;47.362;18.930;2022-12-29T06:57:06;30.55;;;12.02;;
58137;SDS011;43955;47.362;18.930;2022-12-29T06:59:34;26.92;;;13.15;;
58137;SDS011;43955;47.362;18.930;2022-12-29T07:02:01;23.27;;;12.18;;
58137;SDS011;43955;47.362;18.930;2022-12-29T07:04:31;29.45;;;13.68;;
58137;SDS011;43955;47.362;18.930;2022-12-29T07:06:58;24.67;;;12.20;;
58137;SDS011;43955;47.362;18.930;2022-12-29T07:09:25;24.87;;;12.93;;
58137;SDS011;43955;47.362;18.930;2022-12-29T07:11:53;23.80;;;12.48;;
58137;SDS011;43955;47.362;18.930;2022-12-29T07:14:20;47.35;;;16.73;;
58137;SDS011;43955;47.362;18.930;2022-12-29T07:16:47;43.05;;;16.75;;
58137;SDS011;43955;47.362;18.930;2022-12-29T07:19:14;30.60;;;15.05;;
58137;SDS011;43955;47.362;18.930;2022-12-29T07:21:43;30.48;;;15.48;;
58137;SDS011;43955;47.362;18.930;2022-12-29T07:24:13;25.98;;;12.60;;
58137;SDS011;43955;47.362;18.930;2022-12-29T07:26:40;32.88;;;18.62;;
58137;SDS011;43955;47.362;18.930;2022-12-29T07:29:08;29.15;;;14.30;;
58137;SDS011;43955;47.362;18.930;2022-12-29T07:31:36;41.08;;;13.77;;
58137;SDS011;43955;47.362;18.930;2022-12-29T07:34:03;26.95;;;13.50;;
58137;SDS011;43955;47.362;18.930;2022-12-29T07:36:30;28.62;;;14.35;;
58137;SDS011;43955;47.362;18.930;2022-12-29T07:39:00;32.22;;;13.25;;
58137;SDS011;43955;47.362;18.930;2022-12-29T07:41:28;24.17;;;12.35;;
58137;SDS011;43955;47.362;18.930;2022-12-29T07:43:56;23.20;;;14.48;;
58137;SDS011;43955;47.362;18.930;2022-12-29T07:46:24;24.40;;;12.45;;
58137;SDS011;43955;47.362;18.930;2022-12-29T07:49:11;26.35;;;12.80;;
58137;SDS011;43955;47.362;18.930;2022-12-29T07:51:39;27.40;;;13.68;;
58137;SDS011;43955;47.362;18.930;2022-12-29T07:54:06;29.87;;;14.35;;
58137;SDS011;43955;47.362;18.930;2022-12-29T07:56:33;25.08;;;12.48;;
58137;SDS011;43955;47.362;18.930;2022-12-29T07:59:00;28.55;;;13.65;;
58137;SDS011;43955;47.362;18.930;2022-12-29T08:01:28;33.28;;;14.32;;
58137;SDS011;43955;47.362;18.930;2022-12-29T08:03:55;30.25;;;15.60;;
58137;SDS011;43955;47.362;18.930;2022-12-29T08:06:23;28.35;;;15.40;;
58137;SDS011;43955;47.362;18.930;2022-12-29T08:08:51;25.98;;;12.85;;
58137;SDS011;43955;47.362;18.930;2022-12-29T08:11:18;26.92;;;14.40;;
58137;SDS011;43955;47.362;18.930;2022-12-29T08:13:48;31.50;;;13.60;;
58137;SDS011;43955;47.362;18.930;2022-12-29T08:16:15;28.90;;;14.05;;
58137;SDS011;43955;47.362;18.930;2022-12-29T08:18:43;27.55;;;13.93;;
58137;SDS011;43955;47.362;18.930;2022-12-29T08:21:11;26.90;;;14.82;;
58137;SDS011;43955;47.362;18.930;2022-12-29T08:23:38;29.83;;;15.18;;
58137;SDS011;43955;47.362;18.930;2022-12-29T08:26:05;25.62;;;14.18;;
58137;SDS011;43955;47.362;18.930;2022-12-29T08:28:33;29.23;;;13.40;;
58137;SDS011;43955;47.362;18.930;2022-12-29T08:31:00;24.05;;;14.00;;
58137;SDS011;43955;47.362;18.930;2022-12-29T08:33:29;26.45;;;14.02;;
58137;SDS011;43955;47.362;18.930;2022-12-29T08:36:03;25.08;;;14.15;;
58137;SDS011;43955;47.362;18.930;2022-12-29T08:38:32;27.85;;;13.50;;
58137;SDS011;43955;47.362;18.930;2022-12-29T08:40:59;39.40;;;14.05;;
58137;SDS011;43955;47.362;18.930;2022-12-29T08:43:30;40.70;;;16.00;;
58137;SDS011;43955;47.362;18.930;2022-12-29T08:45:58;29.10;;;14.77;;
58137;SDS011;43955;47.362;18.930;2022-12-29T08:48:26;29.90;;;15.02;;
58137;SDS011;43955;47.362;18.930;2022-12-29T08:50:53;40.40;;;17.17;;
58137;SDS011;43955;47.362;18.930;2022-12-29T08:53:20;31.77;;;16.75;;
58137;SDS011;43955;47.362;18.930;2022-12-29T08:55:54;26.67;;;13.62;;
58137;SDS011;43955;47.362;18.930;2022-12-29T08:58:32;35.50;;;15.10;;
58137;SDS011;43955;47.362;18.930;2022-12-29T09:01:00;33.28;;;15.55;;
58137;SDS011;43955;47.362;18.930;2022-12-29T09:03:27;29.48;;;15.68;;
58137;SDS011;43955;47.362;18.930;2022-12-29T09:06:15;27.25;;;15.35;;
58137;SDS011;43955;47.362;18.930;2022-12-29T09:08:46;36.40;;;18.35;;
58137;SDS011;43955;47.362;18.930;2022-12-29T09:11:15;34.45;;;18.05;;
58137;SDS011;43955;47.362;18.930;2022-12-29T09:13:47;30.23;;;14.55;;
58137;SDS011;43955;47.362;18.930;2022-12-29T09:16:15;30.90;;;16.90;;
58137;SDS011;43955;47.362;18.930;2022-12-29T09:18:42;54.95;;;18.60;;
58137;SDS011;43955;47.362;18.930;2022-12-29T09:21:10;28.05;;;16.52;;
58137;SDS011;43955;47.362;18.930;2022-12-29T09:23:38;34.03;;;16.75;;
58137;SDS011;43955;47.362;18.930;2022-12-29T09:26:06;33.53;;;16.23;;
58137;SDS011;43955;47.362;18.930;2022-12-29T09:28:34;31.60;;;16.10;;
58137;SDS011;43955;47.362;18.930;2022-12-29T09:31:01;33.40;;;16.85;;
58137;SDS011;43955;47.362;18.930;2022-12-29T09:33:29;28.75;;;16.40;;
58137;SDS011;43955;47.362;18.930;2022-12-29T09:35:57;31.58;;;17.45;;
58137;SDS011;43955;47.362;18.930;2022-12-29T09:38:25;32.95;;;16.23;;
58137;SDS011;43955;47.362;18.930;2022-12-29T09:41:13;31.05;;;17.12;;
58137;SDS011;43955;47.362;18.930;2022-12-29T09:46:23;34.63;;;16.90;;
58137;SDS011;43955;47.362;18.930;2022-12-29T09:48:55;31.87;;;15.68;;
58137;SDS011;43955;47.362;18.930;2022-12-29T09:51:35;33.25;;;15.68;;
58137;SDS011;43955;47.362;18.930;2022-12-29T09:54:11;38.47;;;17.80;;
58137;SDS011;43955;47.362;18.930;2022-12-29T09:56:47;30.70;;;17.40;;
58137;SDS011;43955;47.362;18.930;2022-12-29T09:59:20;33.05;;;17.58;;
58137;SDS011;43955;47.362;18.930;2022-12-29T10:01:57;40.50;;;17.50;;
58137;SDS011;43955;47.362;18.930;2022-12-29T10:04:31;31.17;;;17.12;;
58137;SDS011;43955;47.362;18.930;2022-12-29T10:07:01;34.40;;;17.12;;
58137;SDS011;43955;47.362;18.930;2022-12-29T10:15:38;30.60;;;16.12;;
58137;SDS011;43955;47.362;18.930;2022-12-29T10:24:34;39.85;;;18.83;;
58137;SDS011;43955;47.362;18.930;2022-12-29T10:27:05;34.15;;;17.08;;
58137;SDS011;43955;47.362;18.930;2022-12-29T10:29:39;29.65;;;16.77;;
58137;SDS011;43955;47.362;18.930;2022-12-29T10:32:28;32.75;;;16.58;;
58137;SDS011;43955;47.362;18.930;2022-12-29T10:35:31;30.67;;;16.73;;
58137;SDS011;43955;47.362;18.930;2022-12-29T10:40:53;34.20;;;15.43;;
58137;SDS011;43955;47.362;18.930;2022-12-29T10:43:43;34.27;;;17.37;;
58137;SDS011;43955;47.362;18.930;2022-12-29T10:46:13;36.08;;;16.25;;
58137;SDS011;43955;47.362;18.930;2022-12-29T10:48:43;35.45;;;17.25;;
58137;SDS011;43955;47.362;18.930;2022-12-29T10:51:32;28.83;;;16.37;;
58137;SDS011;43955;47.362;18.930;2022-12-29T10:54:05;39.20;;;17.00;;
58137;SDS011;43955;47.362;18.930;2022-12-29T10:56:43;26.25;;;14.63;;
58137;SDS011;43955;47.362;18.930;2022-12-29T10:59:23;27.62;;;15.05;;
58137;SDS011;43955;47.362;18.930;2022-12-29T11:01:56;22.35;;;12.95;;
58137;SDS011;43955;47.362;18.930;2022-12-29T11:04:50;34.50;;;19.48;;
58137;SDS011;43955;47.362;18.930;2022-12-29T11:07:30;40.72;;;23.77;;
58137;SDS011;43955;47.362;18.930;2022-12-29T11:12:55;31.75;;;16.33;;
58137;SDS011;43955;47.362;18.930;2022-12-29T11:15:41;28.17;;;15.93;;
58137;SDS011;43955;47.362;18.930;2022-12-29T11:20:57;32.00;;;16.60;;
58137;SDS011;43955;47.362;18.930;2022-12-29T11:23:48;29.50;;;16.52;;
58137;SDS011;43955;47.362;18.930;2022-12-29T11:26:16;32.53;;;17.75;;
58137;SDS011;43955;47.362;18.930;2022-12-29T11:28:52;30.27;;;16.05;;
58137;SDS011;43955;47.362;18.930;2022-12-29T11:31:42;29.70;;;15.45;;
58137;SDS011;43955;47.362;18.930;2022-12-29T11:34:18;32.58;;;15.63;;
58137;SDS011;43955;47.362;18.930;2022-12-29T11:36:59;37.50;;;17.17;;
58137;SDS011;43955;47.362;18.930;2022-12-29T11:39:30;37.53;;;19.08;;
58137;SDS011;43955;47.362;18.930;2022-12-29T11:42:00;40.78;;;17.00;;
58137;SDS011;43955;47.362;18.930;2022-12-29T11:44:31;27.67;;;16.92;;
58137;SDS011;43955;47.362;18.930;2022-12-29T11:47:12;34.13;;;17.92;;
58137;SDS011;43955;47.362;18.930;2022-12-29T11:49:51;30.25;;;17.92;;
58137;SDS011;43955;47.362;18.930;2022-12-29T11:52:23;38.30;;;18.20;;
58137;SDS011;43955;47.362;18.930;2022-12-29T11:54:51;43.47;;;18.40;;
58137;SDS011;43955;47.362;18.930;2022-12-29T11:57:20;34.85;;;18.55;;
58137;SDS011;43955;47.362;18.930;2022-12-29T12:08:10;35.90;;;19.65;;
58137;SDS011;43955;47.362;18.930;2022-12-29T12:11:04;38.10;;;20.15;;
58137;SDS011;43955;47.362;18.930;2022-12-29T12:16:46;33.38;;;18.85;;
58137;SDS011;43955;47.362;18.930;2022-12-29T12:22:10;32.78;;;18.50;;
58137;SDS011;43955;47.362;18.930;2022-12-29T12:24:55;34.90;;;17.62;;
58137;SDS011;43955;47.362;18.930;2022-12-29T12:30:21;29.70;;;16.70;;
58137;SDS011;43955;47.362;18.930;2022-12-29T12:32:58;35.30;;;17.23;;
58137;SDS011;43955;47.362;18.930;2022-12-29T12:35:36;31.80;;;18.20;;
58137;SDS011;43955;47.362;18.930;2022-12-29T12:49:00;28.90;;;17.25;;
58137;SDS011;43955;47.362;18.930;2022-12-29T12:54:51;31.30;;;18.23;;
58137;SDS011;43955;47.362;18.930;2022-12-29T13:00:14;35.97;;;17.70;;
58137;SDS011;43955;47.362;18.930;2022-12-29T13:08:33;35.97;;;19.15;;
58137;SDS011;43955;47.362;18.930;2022-12-29T13:13:48;33.50;;;17.98;;
58137;SDS011;43955;47.362;18.930;2022-12-29T13:16:29;32.25;;;18.10;;
58137;SDS011;43955;47.362;18.930;2022-12-29T13:21:57;34.70;;;20.25;;
58137;SDS011;43955;47.362;18.930;2022-12-29T13:27:15;36.05;;;18.35;;
58137;SDS011;43955;47.362;18.930;2022-12-29T13:32:28;35.15;;;18.77;;
58137;SDS011;43955;47.362;18.930;2022-12-29T13:37:31;35.27;;;19.20;;
58137;SDS011;43955;47.362;18.930;2022-12-29T13:40:10;35.20;;;19.67;;
58137;SDS011;43955;47.362;18.930;2022-12-29T13:42:41;45.50;;;21.02;;
58137;SDS011;43955;47.362;18.930;2022-12-29T13:45:13;41.22;;;19.42;;
58137;SDS011;43955;47.362;18.930;2022-12-29T13:47:48;33.92;;;18.98;;
58137;SDS011;43955;47.362;18.930;2022-12-29T13:50:19;39.83;;;19.87;;
58137;SDS011;43955;47.362;18.930;2022-12-29T13:53:02;32.95;;;19.48;;
58137;SDS011;43955;47.362;18.930;2022-12-29T13:55:35;41.92;;;19.48;;
58137;SDS011;43955;47.362;18.930;2022-12-29T13:58:27;36.67;;;20.08;;
58137;SDS011;43955;47.362;18.930;2022-12-29T14:01:07;47.30;;;20.27;;
58137;SDS011;43955;47.362;18.930;2022-12-29T14:03:44;35.28;;;19.95;;
58137;SDS011;43955;47.362;18.930;2022-12-29T14:08:55;43.05;;;20.90;;
58137;SDS011;43955;47.362;18.930;2022-12-29T14:11:28;36.95;;;19.92;;
58137;SDS011;43955;47.362;18.930;2022-12-29T14:13:59;37.72;;;20.75;;
58137;SDS011;43955;47.362;18.930;2022-12-29T14:16:38;39.70;;;20.73;;
58137;SDS011;43955;47.362;18.930;2022-12-29T14:19:11;34.67;;;18.50;;
58137;SDS011;43955;47.362;18.930;2022-12-29T14:21:39;33.85;;;18.48;;
58137;SDS011;43955;47.362;18.930;2022-12-29T14:24:27;34.50;;;18.30;;
58137;SDS011;43955;47.362;18.930;2022-12-29T14:29:42;41.63;;;20.35;;
58137;SDS011;43955;47.362;18.930;2022-12-29T14:34:47;36.58;;;20.23;;
58137;SDS011;43955;47.362;18.930;2022-12-29T14:37:28;41.63;;;21.17;;
58137;SDS011;43955;47.362;18.930;2022-12-29T14:42:49;52.55;;;23.35;;
58137;SDS011;43955;47.362;18.930;2022-12-29T14:47:46;42.50;;;20.42;;
58137;SDS011;43955;47.362;18.930;2022-12-29T14:50:16;42.78;;;22.20;;
58137;SDS011;43955;47.362;18.930;2022-12-29T14:52:54;44.13;;;21.35;;
58137;SDS011;43955;47.362;18.930;2022-12-29T14:58:00;42.83;;;21.52;;
58137;SDS011;43955;47.362;18.930;2022-12-29T15:00:32;44.97;;;22.23;;
58137;SDS011;43955;47.362;18.930;2022-12-29T15:03:11;47.72;;;22.10;;
58137;SDS011;43955;47.362;18.930;2022-12-29T15:05:51;42.60;;;22.13;;
58137;SDS011;43955;47.362;18.930;2022-12-29T15:08:21;39.70;;;22.33;;
58137;SDS011;43955;47.362;18.930;2022-12-29T15:10:53;47.97;;;23.35;;
58137;SDS011;43955;47.362;18.930;2022-12-29T15:13:24;40.10;;;21.83;;
58137;SDS011;43955;47.362;18.930;2022-12-29T15:15:58;56.90;;;32.60;;
58137;SDS011;43955;47.362;18.930;2022-12-29T15:18:28;51.80;;;27.60;;
58137;SDS011;43955;47.362;18.930;2022-12-29T15:20:57;53.58;;;26.12;;
58137;SDS011;43955;47.362;18.930;2022-12-29T15:23:26;48.58;;;27.08;;
58137;SDS011;43955;47.362;18.930;2022-12-29T15:25:59;48.55;;;23.30;;
58137;SDS011;43955;47.362;18.930;2022-12-29T15:28:41;50.38;;;26.60;;
58137;SDS011;43955;47.362;18.930;2022-12-29T15:31:11;48.95;;;23.48;;
58137;SDS011;43955;47.362;18.930;2022-12-29T15:33:41;43.20;;;21.85;;
58137;SDS011;43955;47.362;18.930;2022-12-29T15:36:10;45.10;;;23.23;;
58137;SDS011;43955;47.362;18.930;2022-12-29T15:38:39;43.55;;;21.92;;
58137;SDS011;43955;47.362;18.930;2022-12-29T15:41:21;48.72;;;22.58;;
58137;SDS011;43955;47.362;18.930;2022-12-29T15:46:29;46.63;;;21.10;;
58137;SDS011;43955;47.362;18.930;2022-12-29T15:48:57;49.78;;;22.98;;
58137;SDS011;43955;47.362;18.930;2022-12-29T15:51:31;46.85;;;23.95;;
58137;SDS011;43955;47.362;18.930;2022-12-29T15:54:01;56.80;;;24.48;;
58137;SDS011;43955;47.362;18.930;2022-12-29T15:56:28;46.13;;;22.87;;
58137;SDS011;43955;47.362;18.930;2022-12-29T15:58:56;48.90;;;23.83;;
58137;SDS011;43955;47.362;18.930;2022-12-29T16:03:52;53.08;;;26.85;;
58137;SDS011;43955;47.362;18.930;2022-12-29T16:06:31;56.78;;;27.27;;
58137;SDS011;43955;47.362;18.930;2022-12-29T16:09:28;60.78;;;27.25;;
58137;SDS011;43955;47.362;18.930;2022-12-29T16:11:49;51.90;;;26.90;;
58137;SDS011;43955;47.362;18.930;2022-12-29T16:14:26;63.08;;;27.40;;
58137;SDS011;43955;47.362;18.930;2022-12-29T16:16:56;68.28;;;30.27;;
58137;SDS011;43955;47.362;18.930;2022-12-29T16:19:29;56.85;;;29.20;;
58137;SDS011;43955;47.362;18.930;2022-12-29T16:21:58;58.30;;;31.17;;
58137;SDS011;43955;47.362;18.930;2022-12-29T16:24:29;58.67;;;30.37;;
58137;SDS011;43955;47.362;18.930;2022-12-29T16:27:01;69.00;;;29.85;;
58137;SDS011;43955;47.362;18.930;2022-12-29T16:29:30;79.20;;;30.73;;
58137;SDS011;43955;47.362;18.930;2022-12-29T16:31:58;65.82;;;31.77;;
58137;SDS011;43955;47.362;18.930;2022-12-29T16:39:34;53.03;;;26.60;;
58137;SDS011;43955;47.362;18.930;2022-12-29T16:50:31;65.30;;;30.62;;
58137;SDS011;43955;47.362;18.930;2022-12-29T16:53:02;55.35;;;28.75;;
58137;SDS011;43955;47.362;18.930;2022-12-29T16:55:30;57.22;;;28.75;;
58137;SDS011;43955;47.362;18.930;2022-12-29T16:57:59;52.42;;;25.08;;
58137;SDS011;43955;47.362;18.930;2022-12-29T17:00:35;48.03;;;24.77;;